createdAt,value
2023-02-13T00:00:16.214Z,9.65
2023-02-13T00:02:42.833Z,9.68
2023-02-13T00:05:09.503Z,9.63
2023-02-13T00:07:36.069Z,9.52
2023-02-13T00:10:02.607Z,9.63
2023-02-13T00:12:29.129Z,9.48
2023-02-13T00:14:55.652Z,9.73
2023-02-13T00:17:22.133Z,9.45
2023-02-13T00:19:48.562Z,10.07
2023-02-13T00:22:16.677Z,9.93
2023-02-13T00:24:43.550Z,9.25
2023-02-13T00:27:10.028Z,10.43
2023-02-13T00:29:36.475Z,10.95
2023-02-13T00:32:03.044Z,11.68
2023-02-13T00:34:29.567Z,10.30
2023-02-13T00:36:56.018Z,10.95
2023-02-13T00:39:22.582Z,10.80
2023-02-13T00:41:49.457Z,11.73
2023-02-13T00:44:15.893Z,11.32
2023-02-13T00:46:42.417Z,12.85
2023-02-13T00:49:08.988Z,12.48
2023-02-13T00:51:35.510Z,12.63
2023-02-13T00:54:02.269Z,12.90
2023-02-13T00:56:28.871Z,11.80
2023-02-13T00:58:55.332Z,12.20
2023-02-13T01:01:23.873Z,11.32
2023-02-13T01:03:50.461Z,12.57
2023-02-13T01:06:17.083Z,11.50
2023-02-13T01:08:43.756Z,12.38
2023-02-13T01:11:10.418Z,11.38
2023-02-13T01:13:36.894Z,11.73
2023-02-13T01:16:03.603Z,12.30
2023-02-13T01:18:30.448Z,12.20
2023-02-13T01:20:59.061Z,11.65
2023-02-13T01:23:25.920Z,12.48
2023-02-13T01:25:52.516Z,12.30
2023-02-13T01:28:19.055Z,11.90
2023-02-13T01:30:45.554Z,12.15
2023-02-13T01:33:12.156Z,12.23
2023-02-13T01:35:41.784Z,12.90
2023-02-13T01:38:09.621Z,13.13
2023-02-13T01:40:36.085Z,11.88
2023-02-13T01:43:02.538Z,12.13
2023-02-13T01:45:30.357Z,12.43
2023-02-13T01:47:59.469Z,12.10
2023-02-13T01:50:31.719Z,12.15
2023-02-13T01:53:02.322Z,11.95
2023-02-13T01:55:31.090Z,11.93
2023-02-13T01:58:02.392Z,11.90
2023-02-13T02:00:29.332Z,12.93
2023-02-13T02:03:00.508Z,12.20
2023-02-13T02:05:28.889Z,11.48
2023-02-13T02:07:56.936Z,12.13
2023-02-13T02:10:23.991Z,11.80
2023-02-13T02:12:53.574Z,12.23
2023-02-13T02:15:21.308Z,12.10
2023-02-13T02:17:48.043Z,11.15
2023-02-13T02:20:20.477Z,11.15
2023-02-13T02:22:59.104Z,12.25
2023-02-13T02:25:34.067Z,11.15
2023-02-13T02:28:20.225Z,11.88
2023-02-13T02:30:49.564Z,11.82
2023-02-13T02:33:44.657Z,11.70
2023-02-13T02:36:17.170Z,11.55
2023-02-13T02:39:02.415Z,10.75
2023-02-13T02:41:45.007Z,11.25
2023-02-13T02:44:33.707Z,10.93
2023-02-13T02:47:23.112Z,10.95
2023-02-13T02:50:02.000Z,10.15
2023-02-13T02:52:39.452Z,10.80
2023-02-13T02:55:29.032Z,10.98
2023-02-13T02:58:20.616Z,10.40
2023-02-13T03:01:06.831Z,11.43
2023-02-13T03:03:53.028Z,9.82
2023-02-13T03:06:22.506Z,10.15
2023-02-13T03:09:19.305Z,10.40
2023-02-13T03:12:06.686Z,11.52
2023-02-13T03:14:33.246Z,11.02
2023-02-13T03:17:18.515Z,10.38
2023-02-13T03:20:12.854Z,10.75
2023-02-13T03:22:39.259Z,10.13
2023-02-13T03:25:15.060Z,10.82
2023-02-13T03:28:19.223Z,11.40
2023-02-13T03:30:58.119Z,10.55
2023-02-13T03:33:24.892Z,11.43
2023-02-13T03:36:28.809Z,11.32
2023-02-13T03:39:06.170Z,11.10
2023-02-13T03:41:43.879Z,12.43
2023-02-13T03:44:16.449Z,10.60
2023-02-13T03:46:45.656Z,10.48
2023-02-13T03:49:34.586Z,10.25
2023-02-13T03:52:30.474Z,11.23
2023-02-13T03:55:17.061Z,11.57
2023-02-13T03:58:03.396Z,11.43
2023-02-13T04:00:33.348Z,12.25
2023-02-13T04:03:08.306Z,11.93
2023-02-13T04:05:38.984Z,11.80
2023-02-13T04:08:05.465Z,12.15
2023-02-13T04:10:34.080Z,11.90
2023-02-13T04:13:00.479Z,12.30
2023-02-13T04:15:34.531Z,11.07
2023-02-13T04:18:21.982Z,11.20
2023-02-13T04:20:48.519Z,11.98
2023-02-13T04:23:15.201Z,11.80
2023-02-13T04:25:43.287Z,12.25
2023-02-13T04:28:09.782Z,12.25
2023-02-13T04:30:36.507Z,11.52
2023-02-13T04:33:03.013Z,11.65
2023-02-13T04:35:29.575Z,11.68
2023-02-13T04:37:56.037Z,11.52
2023-02-13T04:40:22.455Z,11.40
2023-02-13T04:42:49.201Z,11.55
2023-02-13T04:45:16.142Z,12.32
2023-02-13T04:47:42.696Z,11.80
2023-02-13T04:50:09.301Z,12.20
2023-02-13T04:52:35.825Z,12.98
2023-02-13T04:55:02.241Z,12.68
2023-02-13T04:57:28.813Z,12.45
2023-02-13T04:59:55.233Z,12.63
2023-02-13T05:02:21.653Z,14.13
2023-02-13T05:04:48.162Z,12.63
2023-02-13T05:07:14.698Z,11.65
2023-02-13T05:09:41.719Z,12.70
2023-02-13T05:12:08.421Z,12.52
2023-02-13T05:14:35.042Z,13.75
2023-02-13T05:17:01.490Z,13.10
2023-02-13T05:19:27.945Z,13.02
2023-02-13T05:22:13.266Z,13.43
2023-02-13T05:24:39.716Z,13.70
2023-02-13T05:27:06.196Z,13.43
2023-02-13T05:29:32.681Z,13.88
2023-02-13T05:31:59.971Z,14.13
2023-02-13T05:34:27.228Z,13.45
2023-02-13T05:36:54.181Z,13.82
2023-02-13T05:39:20.906Z,15.13
2023-02-13T05:41:47.859Z,15.73
2023-02-13T05:44:14.965Z,14.38
2023-02-13T05:46:42.305Z,15.02
2023-02-13T05:49:09.671Z,15.23
2023-02-13T05:51:36.288Z,15.02
2023-02-13T05:54:02.765Z,14.57
2023-02-13T05:56:29.284Z,15.70
2023-02-13T05:58:55.902Z,16.58
2023-02-13T06:01:23.279Z,15.80
2023-02-13T06:03:49.937Z,15.07
2023-02-13T06:06:16.644Z,14.83
2023-02-13T06:08:43.379Z,15.27
2023-02-13T06:11:10.163Z,15.50
2023-02-13T06:13:36.615Z,16.52
2023-02-13T06:16:03.105Z,15.63
2023-02-13T06:18:29.770Z,16.83
2023-02-13T06:20:56.452Z,16.30
2023-02-13T06:23:23.002Z,16.43
2023-02-13T06:25:50.518Z,16.15
2023-02-13T06:28:17.029Z,15.10
2023-02-13T06:30:43.547Z,16.20
2023-02-13T06:33:10.024Z,15.07
2023-02-13T06:35:36.488Z,16.63
2023-02-13T06:38:02.980Z,15.80
2023-02-13T06:40:29.436Z,17.13
2023-02-13T06:42:55.934Z,16.30
2023-02-13T06:45:22.355Z,18.50
2023-02-13T06:47:49.133Z,18.67
2023-02-13T06:50:16.282Z,18.70
2023-02-13T06:52:49.837Z,17.90
2023-02-13T06:55:16.678Z,17.20
2023-02-13T06:57:43.542Z,18.20
2023-02-13T07:00:13.255Z,17.90
2023-02-13T07:02:40.557Z,19.10
2023-02-13T07:05:07.546Z,19.33
2023-02-13T07:07:34.779Z,19.20
2023-02-13T07:10:01.633Z,17.90
2023-02-13T07:12:28.145Z,18.50
2023-02-13T07:14:54.604Z,18.00
2023-02-13T07:17:21.046Z,17.83
2023-02-13T07:19:49.755Z,19.33
2023-02-13T07:22:16.407Z,18.70
2023-02-13T07:24:43.224Z,18.27
2023-02-13T07:27:09.695Z,19.50
2023-02-13T07:29:36.199Z,18.87
2023-02-13T07:32:02.812Z,18.50
2023-02-13T07:34:29.296Z,20.37
2023-02-13T07:36:55.760Z,18.77
2023-02-13T07:39:22.191Z,18.47
2023-02-13T07:41:48.704Z,18.10
2023-02-13T07:44:16.091Z,18.03
2023-02-13T07:46:42.697Z,18.03
2023-02-13T07:49:09.182Z,17.67
2023-02-13T07:51:35.671Z,16.60
2023-02-13T07:54:02.854Z,18.00
2023-02-13T07:56:29.279Z,18.37
2023-02-13T07:58:55.754Z,17.47
2023-02-13T08:01:22.435Z,17.30
2023-02-13T08:03:52.662Z,17.23
2023-02-13T08:06:20.193Z,15.70
2023-02-13T08:08:47.127Z,16.77
2023-02-13T08:11:42.881Z,16.10
2023-02-13T08:14:09.634Z,15.97
2023-02-13T08:16:36.237Z,15.00
2023-02-13T08:19:02.975Z,15.13
2023-02-13T08:21:30.463Z,14.93
2023-02-13T08:23:57.268Z,15.57
2023-02-13T08:26:23.719Z,15.30
2023-02-13T08:28:50.185Z,14.85
2023-02-13T08:31:16.659Z,15.33
2023-02-13T08:33:43.206Z,15.90
2023-02-13T08:36:09.761Z,14.48
2023-02-13T08:38:36.364Z,14.20
2023-02-13T08:41:02.879Z,13.55
2023-02-13T08:43:29.334Z,13.95
2023-02-13T08:45:58.723Z,12.63
2023-02-13T08:48:26.094Z,13.90
2023-02-13T08:50:52.743Z,12.82
2023-02-13T08:53:19.372Z,12.95
2023-02-13T08:55:56.190Z,13.35
2023-02-13T08:58:23.176Z,13.20
2023-02-13T09:00:50.040Z,13.10
2023-02-13T09:03:16.943Z,12.55
2023-02-13T09:05:43.463Z,12.48
2023-02-13T09:08:11.776Z,13.43
2023-02-13T09:10:39.068Z,12.73
2023-02-13T09:13:05.574Z,12.30
2023-02-13T09:15:32.474Z,12.38
2023-02-13T09:17:59.053Z,12.90
2023-02-13T09:20:25.530Z,13.00
2023-02-13T09:22:51.992Z,12.95
2023-02-13T09:25:20.201Z,11.70
2023-02-13T09:27:46.674Z,13.00
2023-02-13T09:30:18.577Z,12.55
2023-02-13T09:32:45.056Z,11.77
2023-02-13T09:35:11.532Z,11.80
2023-02-13T09:37:37.982Z,12.15
2023-02-13T09:40:04.598Z,12.02
2023-02-13T09:42:33.460Z,12.00
2023-02-13T09:45:01.865Z,11.38
2023-02-13T09:47:32.404Z,11.93
2023-02-13T09:50:01.900Z,12.93
2023-02-13T09:52:31.755Z,11.65
2023-02-13T09:54:58.270Z,12.15
2023-02-13T09:57:31.177Z,11.32
2023-02-13T10:00:04.324Z,10.88
2023-02-13T10:02:45.164Z,10.80
2023-02-13T10:05:30.132Z,11.50
2023-02-13T10:08:09.083Z,11.07
2023-02-13T10:11:01.779Z,10.75
2023-02-13T10:13:41.553Z,9.52
2023-02-13T10:16:10.222Z,10.10
2023-02-13T10:18:56.954Z,9.52
2023-02-13T10:21:26.668Z,9.35
2023-02-13T10:23:56.157Z,9.73
2023-02-13T10:26:42.448Z,9.75
2023-02-13T10:29:41.973Z,9.98
2023-02-13T10:32:10.726Z,9.05
2023-02-13T10:34:47.047Z,8.90
2023-02-13T10:37:15.409Z,9.63
2023-02-13T10:39:43.977Z,9.32
2023-02-13T10:42:13.430Z,8.75
2023-02-13T10:44:45.168Z,8.77
2023-02-13T10:47:39.472Z,8.75
2023-02-13T10:50:17.842Z,9.32
2023-02-13T10:53:03.114Z,8.60
2023-02-13T10:55:48.493Z,9.15
2023-02-13T10:58:41.418Z,8.77
2023-02-13T11:01:11.603Z,8.10
2023-02-13T11:03:39.402Z,8.18
2023-02-13T11:06:07.772Z,7.65
2023-02-13T11:08:35.944Z,8.27
2023-02-13T11:11:02.405Z,8.25
2023-02-13T11:13:30.084Z,8.30
2023-02-13T11:15:58.723Z,9.30
2023-02-13T11:18:26.457Z,8.90
2023-02-13T11:21:02.417Z,8.70
2023-02-13T11:23:31.863Z,7.97
2023-02-13T11:26:03.210Z,8.50
2023-02-13T11:28:31.208Z,8.50
2023-02-13T11:31:22.055Z,8.80
2023-02-13T11:33:48.593Z,8.40
2023-02-13T11:36:33.992Z,7.85
2023-02-13T11:39:05.832Z,8.18
2023-02-13T11:41:37.466Z,8.30
2023-02-13T11:44:04.299Z,7.55
2023-02-13T11:46:42.875Z,7.47
2023-02-13T11:49:26.117Z,8.07
2023-02-13T11:51:54.094Z,7.32
2023-02-13T11:54:23.211Z,7.25
2023-02-13T11:57:04.094Z,6.85
2023-02-13T11:59:33.667Z,7.43
2023-02-13T12:02:17.412Z,6.55
2023-02-13T12:04:43.985Z,6.47
2023-02-13T12:07:13.328Z,7.00
2023-02-13T12:09:40.761Z,7.15
2023-02-13T12:12:11.097Z,7.50
2023-02-13T12:14:39.653Z,7.55
2023-02-13T12:17:25.522Z,7.40
2023-02-13T12:19:57.190Z,7.00
2023-02-13T12:22:29.655Z,7.28
2023-02-13T12:25:11.215Z,6.75
2023-02-13T12:27:43.741Z,6.63
2023-02-13T12:30:19.563Z,5.75
2023-02-13T12:32:55.358Z,6.20
2023-02-13T12:35:51.730Z,5.88
2023-02-13T12:38:33.548Z,6.18
2023-02-13T12:41:15.374Z,5.85
2023-02-13T12:43:51.979Z,5.60
2023-02-13T12:46:18.425Z,6.10
2023-02-13T12:48:50.737Z,5.25
2023-02-13T12:51:25.741Z,5.57
2023-02-13T12:54:07.560Z,5.75
2023-02-13T12:56:40.187Z,5.35
2023-02-13T12:59:06.647Z,5.50
2023-02-13T13:01:48.578Z,6.13
2023-02-13T13:04:15.138Z,5.88
2023-02-13T13:06:41.912Z,5.53
2023-02-13T13:09:14.127Z,5.22
2023-02-13T13:11:49.911Z,5.25
2023-02-13T13:14:34.769Z,4.78
2023-02-13T13:17:13.624Z,5.63
2023-02-13T13:19:46.225Z,5.60
2023-02-13T13:22:37.936Z,6.00
2023-02-13T13:25:13.663Z,5.00
2023-02-13T13:27:44.324Z,5.20
2023-02-13T13:30:17.997Z,5.20
2023-02-13T13:32:45.369Z,4.97
2023-02-13T13:35:15.699Z,5.50
2023-02-13T13:37:42.125Z,5.40
2023-02-13T13:40:27.226Z,5.40
2023-02-13T13:42:58.465Z,5.43
2023-02-13T13:45:24.893Z,5.10
2023-02-13T13:47:54.388Z,6.18
2023-02-13T13:50:25.284Z,4.88
2023-02-13T13:53:06.926Z,4.85
2023-02-13T13:55:52.750Z,5.18
2023-02-13T13:58:23.421Z,5.05
2023-02-13T14:01:23.096Z,5.00
2023-02-13T14:03:51.324Z,4.40
2023-02-13T14:06:19.108Z,5.35
2023-02-13T14:08:45.518Z,4.55
2023-02-13T14:11:24.302Z,4.30
2023-02-13T14:13:50.799Z,4.15
2023-02-13T14:16:35.933Z,4.05
2023-02-13T14:19:02.467Z,4.47
2023-02-13T14:21:28.964Z,4.38
2023-02-13T14:23:57.422Z,4.10
2023-02-13T14:26:30.033Z,4.05
2023-02-13T14:28:58.729Z,3.88
2023-02-13T14:31:27.998Z,4.20
2023-02-13T14:33:56.150Z,3.83
2023-02-13T14:36:23.263Z,4.85
2023-02-13T14:39:08.559Z,4.20
2023-02-13T14:41:43.106Z,3.85
2023-02-13T14:44:28.625Z,4.25
2023-02-13T14:46:56.864Z,4.55
2023-02-13T14:49:25.441Z,3.72
2023-02-13T14:51:54.186Z,3.83
2023-02-13T14:54:32.681Z,3.30
2023-02-13T14:57:04.690Z,3.45
2023-02-13T14:59:36.734Z,3.60
2023-02-13T15:02:15.129Z,3.70
2023-02-13T15:04:43.132Z,3.67
2023-02-13T15:07:14.702Z,3.35
2023-02-13T15:09:44.727Z,3.22
2023-02-13T15:12:31.081Z,3.47
2023-02-13T15:14:58.052Z,2.80
2023-02-13T15:17:26.743Z,2.90
2023-02-13T15:19:54.286Z,2.90
2023-02-13T15:22:22.024Z,2.50
2023-02-13T15:24:49.459Z,2.60
2023-02-13T15:27:20.950Z,3.33
2023-02-13T15:29:58.621Z,2.88
2023-02-13T15:32:32.984Z,2.58
2023-02-13T15:34:59.840Z,2.83
2023-02-13T15:37:30.653Z,2.47
2023-02-13T15:40:13.305Z,2.80
2023-02-13T15:42:39.909Z,2.42
2023-02-13T15:45:13.235Z,2.40
2023-02-13T15:47:40.515Z,2.38
2023-02-13T15:50:14.447Z,2.50
2023-02-13T15:52:40.952Z,2.42
2023-02-13T15:55:18.113Z,3.10
2023-02-13T15:57:44.695Z,2.42
2023-02-13T16:00:23.173Z,2.50
2023-02-13T16:02:51.210Z,2.10
2023-02-13T16:05:26.547Z,2.13
2023-02-13T16:08:21.064Z,2.60
2023-02-13T16:10:47.627Z,2.63
2023-02-13T16:13:18.063Z,2.63
2023-02-13T16:15:44.541Z,2.80
2023-02-13T16:18:18.097Z,2.58
2023-02-13T16:20:44.610Z,2.10
2023-02-13T16:23:16.647Z,2.25
2023-02-13T16:25:43.446Z,2.60
2023-02-13T16:28:10.049Z,2.42
2023-02-13T16:30:40.867Z,2.88
2023-02-13T16:33:11.528Z,2.65
2023-02-13T16:35:39.622Z,2.05
2023-02-13T16:38:23.591Z,2.65
2023-02-13T16:40:50.151Z,2.10
2023-02-13T16:43:35.152Z,3.10
2023-02-13T16:46:10.399Z,3.55
2023-02-13T16:48:36.991Z,4.55
2023-02-13T16:51:03.595Z,3.85
2023-02-13T16:53:30.213Z,5.70
2023-02-13T16:56:01.224Z,5.18
2023-02-13T16:58:27.741Z,4.32
2023-02-13T17:00:54.671Z,3.05
2023-02-13T17:03:21.156Z,3.42
2023-02-13T17:05:47.589Z,3.05
2023-02-13T17:08:14.012Z,2.85
2023-02-13T17:10:42.079Z,2.75
2023-02-13T17:13:08.795Z,2.53
2023-02-13T17:15:35.260Z,2.10
2023-02-13T17:18:01.736Z,2.22
2023-02-13T17:20:29.691Z,2.13
2023-02-13T17:22:57.559Z,2.30
2023-02-13T17:25:25.126Z,2.20
2023-02-13T17:27:52.919Z,2.10
2023-02-13T17:30:21.009Z,2.60
2023-02-13T17:32:47.686Z,2.33
2023-02-13T17:35:14.900Z,2.30
2023-02-13T17:37:42.196Z,2.63
2023-02-13T17:40:09.416Z,2.50
2023-02-13T17:42:36.012Z,2.50
2023-02-13T17:45:02.484Z,2.55
2023-02-13T17:47:30.306Z,2.40
2023-02-13T17:50:05.145Z,2.65
2023-02-13T17:52:36.215Z,3.22
2023-02-13T17:55:03.501Z,3.40
2023-02-13T17:57:30.091Z,2.90
2023-02-13T17:59:56.935Z,3.20
2023-02-13T18:02:24.782Z,2.72
2023-02-13T18:04:51.329Z,3.08
2023-02-13T18:07:19.060Z,2.58
2023-02-13T18:09:45.581Z,2.60
2023-02-13T18:12:16.248Z,2.92
2023-02-13T18:14:43.014Z,2.67
2023-02-13T18:17:09.925Z,2.58
2023-02-13T18:19:37.311Z,3.00
2023-02-13T18:22:04.907Z,2.50
2023-02-13T18:24:32.730Z,3.35
2023-02-13T18:27:02.080Z,3.20
2023-02-13T18:29:28.605Z,3.15
2023-02-13T18:31:55.369Z,3.42
2023-02-13T18:34:22.731Z,3.08
2023-02-13T18:36:49.646Z,2.92
2023-02-13T18:39:16.919Z,3.10
2023-02-13T18:41:43.490Z,2.83
2023-02-13T18:44:14.750Z,3.20
2023-02-13T18:46:43.863Z,3.50
2023-02-13T18:49:10.962Z,3.45
2023-02-13T18:51:37.393Z,3.63
2023-02-13T18:54:04.006Z,4.07
2023-02-13T18:56:30.471Z,4.40
2023-02-13T18:58:57.090Z,4.85
2023-02-13T19:01:23.780Z,4.18
2023-02-13T19:03:51.369Z,4.68
2023-02-13T19:06:19.115Z,4.72
2023-02-13T19:08:45.699Z,4.60
2023-02-13T19:11:14.424Z,4.38
2023-02-13T19:13:41.500Z,4.70
2023-02-13T19:16:09.639Z,4.15
2023-02-13T19:18:36.444Z,4.65
2023-02-13T19:21:03.388Z,4.32
2023-02-13T19:23:30.322Z,4.35
2023-02-13T19:25:56.790Z,4.50
2023-02-13T19:28:23.259Z,4.70
2023-02-13T19:30:50.166Z,4.07
2023-02-13T19:33:16.868Z,4.40
2023-02-13T19:35:43.319Z,4.78
2023-02-13T19:38:09.897Z,4.60
2023-02-13T19:40:36.409Z,4.57
2023-02-13T19:43:02.875Z,4.47
2023-02-13T19:45:29.418Z,4.28
2023-02-13T19:47:56.250Z,4.50
2023-02-13T19:50:22.974Z,4.68
2023-02-13T19:52:50.615Z,5.00
2023-02-13T19:55:17.138Z,4.57
2023-02-13T19:57:43.676Z,4.90
2023-02-13T20:00:10.380Z,5.88
2023-02-13T20:02:39.975Z,5.60
2023-02-13T20:05:08.478Z,5.72
2023-02-13T20:07:35.069Z,5.40
2023-02-13T20:10:01.552Z,5.05
2023-02-13T20:12:28.053Z,5.50
2023-02-13T20:14:55.135Z,5.20
2023-02-13T20:17:22.821Z,4.93
2023-02-13T20:19:51.393Z,5.88
2023-02-13T20:22:18.430Z,5.82
2023-02-13T20:24:47.066Z,5.30
2023-02-13T20:27:14.296Z,5.80
2023-02-13T20:29:41.147Z,6.03
2023-02-13T20:32:07.802Z,5.65
2023-02-13T20:34:44.130Z,5.32
2023-02-13T20:37:16.576Z,5.47
2023-02-13T20:39:43.124Z,5.72
2023-02-13T20:42:09.545Z,6.15
2023-02-13T20:44:36.060Z,6.70
2023-02-13T20:47:03.526Z,6.13
2023-02-13T20:49:30.019Z,6.18
2023-02-13T20:51:56.606Z,5.28
2023-02-13T20:54:23.056Z,5.38
2023-02-13T20:56:49.502Z,4.95
2023-02-13T20:59:15.977Z,5.38
2023-02-13T21:01:43.959Z,5.30
2023-02-13T21:04:13.757Z,5.05
2023-02-13T21:06:41.099Z,4.55
2023-02-13T21:09:08.491Z,4.88
2023-02-13T21:11:36.160Z,5.05
2023-02-13T21:14:03.310Z,4.57
2023-02-13T21:16:31.097Z,4.82
2023-02-13T21:18:58.855Z,5.35
2023-02-13T21:21:26.973Z,5.43
2023-02-13T21:23:57.260Z,5.30
2023-02-13T21:26:24.224Z,4.57
2023-02-13T21:28:50.866Z,4.85
2023-02-13T21:31:29.122Z,5.18
2023-02-13T21:33:59.561Z,5.28
2023-02-13T21:36:27.024Z,4.90
2023-02-13T21:38:53.714Z,5.15
2023-02-13T21:41:20.227Z,5.28
2023-02-13T21:43:48.133Z,5.20
2023-02-13T21:46:16.820Z,4.78
2023-02-13T21:48:43.554Z,5.10
2023-02-13T21:51:17.682Z,5.25
2023-02-13T21:53:44.929Z,5.32
2023-02-13T21:56:13.230Z,5.90
2023-02-13T21:58:41.068Z,6.10
2023-02-13T22:01:20.427Z,5.97
2023-02-13T22:03:50.604Z,5.55
2023-02-13T22:06:17.682Z,5.78
2023-02-13T22:08:44.266Z,5.97
2023-02-13T22:11:10.889Z,5.90
2023-02-13T22:13:40.367Z,5.70
2023-02-13T22:16:07.882Z,6.82
2023-02-13T22:18:35.572Z,6.22
2023-02-13T22:21:13.581Z,6.57
2023-02-13T22:23:40.737Z,6.65
2023-02-13T22:26:07.268Z,6.70
2023-02-13T22:28:34.014Z,7.10
2023-02-13T22:31:01.011Z,7.03
2023-02-13T22:33:27.713Z,6.60
2023-02-13T22:35:54.215Z,7.70
2023-02-13T22:38:20.680Z,6.78
2023-02-13T22:40:47.165Z,7.40
2023-02-13T22:43:13.707Z,7.65
2023-02-13T22:45:40.147Z,7.35
2023-02-13T22:48:06.642Z,7.45
2023-02-13T22:50:33.416Z,7.40
2023-02-13T22:53:00.333Z,7.23
2023-02-13T22:55:27.176Z,7.47
2023-02-13T22:57:56.968Z,7.37
2023-02-13T23:00:23.521Z,7.30
2023-02-13T23:02:50.710Z,6.87
2023-02-13T23:05:18.050Z,7.53
2023-02-13T23:07:44.484Z,7.20
2023-02-13T23:10:11.198Z,7.90
2023-02-13T23:12:38.928Z,7.40
2023-02-13T23:15:09.980Z,7.72
2023-02-13T23:17:55.619Z,8.05
2023-02-13T23:20:22.409Z,7.45
2023-02-13T23:22:49.008Z,8.32
2023-02-13T23:25:15.875Z,8.70
2023-02-13T23:27:42.487Z,8.65
2023-02-13T23:30:09.678Z,9.55
2023-02-13T23:32:36.150Z,7.93
2023-02-13T23:35:02.630Z,8.18
2023-02-13T23:37:29.353Z,8.53
2023-02-13T23:39:55.942Z,9.07
2023-02-13T23:42:22.583Z,8.45
2023-02-13T23:44:50.065Z,8.53
2023-02-13T23:47:16.555Z,8.13
2023-02-13T23:49:43.069Z,8.17
2023-02-13T23:52:09.576Z,7.83
2023-02-13T23:54:36.248Z,7.87
2023-02-13T23:57:02.692Z,7.57
2023-02-13T23:59:29.152Z,6.97
